createdAt,value
2018-07-02T00:02:21.913Z,98525.62
2018-07-02T00:04:50.088Z,98521.00
2018-07-02T00:07:27.722Z,98527.45
2018-07-02T00:09:56.118Z,98522.31
2018-07-02T00:12:25.037Z,98517.32
2018-07-02T00:14:53.901Z,98512.04
2018-07-02T00:17:22.015Z,98515.52
2018-07-02T00:19:50.149Z,98510.05
2018-07-02T00:22:18.244Z,98509.53
2018-07-02T00:24:46.317Z,98508.55
2018-07-02T00:27:14.420Z,98507.88
2018-07-02T00:29:42.507Z,98502.73
2018-07-02T00:32:10.947Z,98502.23
2018-07-02T00:34:39.032Z,98501.91
2018-07-02T00:37:07.156Z,98504.55
2018-07-02T00:39:35.452Z,98500.73
2018-07-02T00:42:03.626Z,98505.53
2018-07-02T00:44:31.714Z,98499.73
2018-07-02T00:46:59.807Z,98492.80
2018-07-02T00:49:27.903Z,98482.66
2018-07-02T00:51:55.993Z,98484.15
2018-07-02T00:54:24.063Z,98489.61
2018-07-02T00:56:52.164Z,98492.43
2018-07-02T00:59:20.235Z,98490.86
2018-07-02T01:01:48.771Z,98492.17
2018-07-02T01:04:16.884Z,98492.33
2018-07-02T01:06:45.117Z,98491.13
2018-07-02T01:09:13.590Z,98490.28
2018-07-02T01:11:41.676Z,98484.47
2018-07-02T01:14:09.789Z,98486.94
2018-07-02T01:16:37.868Z,98490.41
2018-07-02T01:19:06.717Z,98497.99
2018-07-02T01:21:34.800Z,98492.16
2018-07-02T01:24:02.920Z,98495.06
2018-07-02T01:26:31.011Z,98499.63
2018-07-02T01:28:59.108Z,98499.30
2018-07-02T01:31:27.456Z,98499.95
2018-07-02T01:33:55.545Z,98500.73
2018-07-02T01:36:23.645Z,98504.83
2018-07-02T01:38:51.867Z,98505.41
2018-07-02T01:41:19.996Z,98512.28
2018-07-02T01:43:48.160Z,98508.55
2018-07-02T01:46:16.241Z,98518.58
2018-07-02T01:48:44.336Z,98521.94
2018-07-02T01:51:12.531Z,98524.45
2018-07-02T01:53:40.931Z,98525.55
2018-07-02T01:56:09.107Z,98523.63
2018-07-02T01:58:38.017Z,98522.52
2018-07-02T02:01:06.178Z,98526.48
2018-07-02T02:03:34.269Z,98533.42
2018-07-02T02:06:02.360Z,98528.17
2018-07-02T02:08:30.479Z,98529.37
2018-07-02T02:10:58.587Z,98524.36
2018-07-02T02:13:26.681Z,98527.36
2018-07-02T02:15:54.797Z,98534.89
2018-07-02T02:18:22.908Z,98531.95
2018-07-02T02:20:51.037Z,98530.69
2018-07-02T02:23:19.153Z,98529.38
2018-07-02T02:25:47.236Z,98522.47
2018-07-02T02:28:15.296Z,98522.11
2018-07-02T02:30:43.401Z,98518.47
2018-07-02T02:33:11.572Z,98515.88
2018-07-02T02:35:39.657Z,98510.84
2018-07-02T02:38:07.873Z,98514.92
2018-07-02T02:40:36.092Z,98513.48
2018-07-02T02:43:04.217Z,98515.00
2018-07-02T02:45:32.767Z,98529.37
2018-07-02T02:48:00.960Z,98521.56
2018-07-02T02:50:29.048Z,98520.20
2018-07-02T02:52:57.156Z,98522.83
2018-07-02T02:55:25.268Z,98520.98
2018-07-02T02:57:53.595Z,98531.55
2018-07-02T03:00:21.685Z,98532.63
2018-07-02T03:02:49.980Z,98526.69
2018-07-02T03:05:18.193Z,98526.86
2018-07-02T03:07:46.300Z,98520.08
2018-07-02T03:10:14.655Z,98514.64
2018-07-02T03:12:42.771Z,98519.62
2018-07-02T03:15:10.864Z,98515.61
2018-07-02T03:17:38.961Z,98524.14
2018-07-02T03:20:07.529Z,98527.61
2018-07-02T03:22:35.739Z,98521.16
2018-07-02T03:25:03.869Z,98511.38
2018-07-02T03:27:31.952Z,98518.46
2018-07-02T03:30:00.033Z,98519.03
2018-07-02T03:32:28.224Z,98530.17
2018-07-02T03:34:56.340Z,98526.30
2018-07-02T03:37:24.429Z,98527.54
2018-07-02T03:39:52.534Z,98532.04
2018-07-02T03:42:20.795Z,98530.95
2018-07-02T03:44:48.924Z,98536.89
2018-07-02T03:47:17.860Z,98533.59
2018-07-02T03:49:45.966Z,98539.20
2018-07-02T03:52:14.052Z,98537.49
2018-07-02T03:54:42.197Z,98537.86
2018-07-02T03:57:10.420Z,98533.12
2018-07-02T03:59:38.980Z,98528.59
2018-07-02T04:02:07.079Z,98531.26
2018-07-02T04:04:35.183Z,98543.44
2018-07-02T04:07:03.383Z,98542.56
2018-07-02T04:09:31.479Z,98545.20
2018-07-02T04:11:59.683Z,98539.98
2018-07-02T04:14:27.917Z,98551.29
2018-07-02T04:16:56.064Z,98551.20
2018-07-02T04:19:24.173Z,98547.50
2018-07-02T04:21:52.287Z,98544.66
2018-07-02T04:24:20.376Z,98548.41
2018-07-02T04:26:48.471Z,98533.07
2018-07-02T04:29:16.556Z,98534.94
2018-07-02T04:31:44.704Z,98524.60
2018-07-02T04:34:13.807Z,98520.13
2018-07-02T04:36:41.855Z,98516.22
2018-07-02T04:39:09.956Z,98514.27
2018-07-02T04:41:38.360Z,98514.80
2018-07-02T04:44:06.896Z,98513.98
2018-07-02T04:46:35.082Z,98505.94
2018-07-02T04:49:03.221Z,98509.97
2018-07-02T04:51:31.292Z,98510.24
2018-07-02T04:53:59.363Z,98512.38
2018-07-02T04:56:27.451Z,98510.05
2018-07-02T04:58:55.644Z,98511.82
2018-07-02T05:01:23.735Z,98514.87
2018-07-02T05:03:51.968Z,98511.70
2018-07-02T05:06:20.084Z,98509.05
2018-07-02T05:08:48.164Z,98505.83
2018-07-02T05:11:16.308Z,98508.81
2018-07-02T05:13:45.312Z,98522.47
2018-07-02T05:16:13.381Z,98519.19
2018-07-02T05:18:41.743Z,98523.97
2018-07-02T05:21:09.850Z,98516.69
2018-07-02T05:23:37.941Z,98516.08
2018-07-02T05:26:06.079Z,98521.87
2018-07-02T05:28:34.424Z,98515.03
2018-07-02T05:31:02.506Z,98512.83
2018-07-02T05:33:30.589Z,98514.59
2018-07-02T05:35:58.682Z,98505.77
2018-07-02T05:38:26.786Z,98509.67
2018-07-02T05:40:55.122Z,98503.24
2018-07-02T05:43:23.265Z,98506.22
2018-07-02T05:45:51.356Z,98526.10
2018-07-02T05:48:19.544Z,98514.47
2018-07-02T05:50:47.644Z,98512.31
2018-07-02T05:53:15.864Z,98509.88
2018-07-02T05:55:43.936Z,98511.86
2018-07-02T05:58:12.016Z,98522.85
2018-07-02T06:00:40.132Z,98519.59
2018-07-02T06:03:08.206Z,98516.38
2018-07-02T06:05:36.296Z,98524.41
2018-07-02T06:08:04.641Z,98517.46
2018-07-02T06:10:32.683Z,98514.47
2018-07-02T06:13:01.029Z,98517.31
2018-07-02T06:15:29.153Z,98525.08
2018-07-02T06:17:57.240Z,98529.51
2018-07-02T06:20:25.500Z,98533.67
2018-07-02T06:22:53.665Z,98533.25
2018-07-02T06:25:21.757Z,98531.52
2018-07-02T06:27:50.157Z,98525.08
2018-07-02T06:30:18.419Z,98521.95
2018-07-02T06:32:46.737Z,98522.09
2018-07-02T06:35:14.829Z,98517.84
2018-07-02T06:37:42.925Z,98517.47
2018-07-02T06:40:11.009Z,98529.00
2018-07-02T06:42:39.443Z,98525.22
2018-07-02T06:45:07.527Z,98531.83
2018-07-02T06:47:35.643Z,98529.45
2018-07-02T06:50:03.758Z,98539.84
2018-07-02T06:52:31.852Z,98542.11
2018-07-02T06:54:59.926Z,98540.03
2018-07-02T06:57:28.036Z,98543.66
2018-07-02T06:59:56.108Z,98552.41
2018-07-02T07:02:24.195Z,98548.83
2018-07-02T07:04:52.439Z,98548.66
2018-07-02T07:07:20.542Z,98546.13
2018-07-02T07:09:48.672Z,98550.72
2018-07-02T07:12:16.749Z,98554.36
2018-07-02T07:14:44.844Z,98552.08
2018-07-02T07:17:13.025Z,98547.38
2018-07-02T07:19:42.138Z,98547.89
2018-07-02T07:22:10.276Z,98550.42
2018-07-02T07:24:38.388Z,98553.59
2018-07-02T07:27:06.478Z,98559.69
2018-07-02T07:29:34.583Z,98552.56
2018-07-02T07:32:02.668Z,98549.89
2018-07-02T07:34:30.765Z,98547.05
2018-07-02T07:36:58.852Z,98542.98
2018-07-02T07:39:26.937Z,98536.22
2018-07-02T07:44:47.448Z,98542.91
2018-07-02T07:47:15.533Z,98550.16
2018-07-02T07:49:43.612Z,98548.56
2018-07-02T07:52:11.809Z,98554.59
2018-07-02T07:54:39.888Z,98543.47
2018-07-02T07:57:07.973Z,98540.22
2018-07-02T07:59:36.053Z,98544.94
2018-07-02T08:02:04.132Z,98545.78
2018-07-02T08:04:32.221Z,98540.91
2018-07-02T08:07:00.328Z,98535.96
2018-07-02T08:09:28.432Z,98533.94
2018-07-02T08:11:56.638Z,98537.17
2018-07-02T08:14:24.772Z,98526.19
2018-07-02T08:16:53.284Z,98530.06
2018-07-02T08:19:21.389Z,98525.37
2018-07-02T08:21:49.828Z,98514.99
2018-07-02T08:24:17.944Z,98522.11
2018-07-02T08:26:46.032Z,98522.84
2018-07-02T08:29:14.094Z,98520.56
2018-07-02T08:31:42.204Z,98520.84
2018-07-02T08:34:10.493Z,98522.53
2018-07-02T08:36:38.610Z,98524.55
2018-07-02T08:39:09.305Z,98520.36
2018-07-02T08:41:37.401Z,98519.47
2018-07-02T08:44:05.858Z,98517.75
2018-07-02T08:46:34.333Z,98510.45
2018-07-02T08:49:02.549Z,98510.52
2018-07-02T08:51:31.004Z,98513.54
2018-07-02T08:53:59.185Z,98507.46
2018-07-02T08:56:27.293Z,98507.45
2018-07-02T08:58:55.428Z,98515.22
2018-07-02T09:01:23.544Z,98503.66
2018-07-02T09:03:52.177Z,98502.62
2018-07-02T09:06:20.304Z,98502.21
2018-07-02T09:08:48.374Z,98513.25
2018-07-02T09:11:16.468Z,98511.00
2018-07-02T09:13:44.547Z,98508.84
2018-07-02T09:16:12.641Z,98510.05
2018-07-02T09:18:40.715Z,98506.11
2018-07-02T09:21:08.810Z,98509.44
2018-07-02T09:23:36.888Z,98508.72
2018-07-02T09:26:05.224Z,98509.30
2018-07-02T09:28:33.290Z,98503.44
2018-07-02T09:31:01.385Z,98492.05
2018-07-02T09:33:29.465Z,98505.78
2018-07-02T09:35:57.600Z,98504.95
2018-07-02T09:38:25.692Z,98506.92
2018-07-02T09:40:54.004Z,98503.20
2018-07-02T09:43:21.872Z,98503.86
2018-07-02T09:45:49.960Z,98505.48
2018-07-02T09:48:18.511Z,98501.72
2018-07-02T09:50:47.069Z,98498.35
2018-07-02T09:53:15.160Z,98502.63
2018-07-02T09:55:43.245Z,98492.40
2018-07-02T09:58:11.333Z,98497.91
2018-07-02T10:00:39.474Z,98490.52
2018-07-02T10:03:08.996Z,98496.18
2018-07-02T10:05:37.082Z,98501.27
2018-07-02T10:08:05.204Z,98503.53
2018-07-02T10:10:33.286Z,98493.03
2018-07-02T10:13:01.444Z,98497.39
2018-07-02T10:15:29.540Z,98505.91
2018-07-02T10:17:58.258Z,98507.17
2018-07-02T10:20:26.513Z,98501.79
2018-07-02T10:22:54.727Z,98506.84
2018-07-02T10:25:22.796Z,98501.11
2018-07-02T10:27:50.965Z,98506.41
2018-07-02T10:30:19.084Z,98502.51
2018-07-02T10:32:47.212Z,98498.85
2018-07-02T10:35:15.363Z,98502.77
2018-07-02T10:37:43.531Z,98501.13
2018-07-02T10:40:11.670Z,98503.05
2018-07-02T10:42:39.774Z,98499.66
2018-07-02T10:45:08.188Z,98499.42
2018-07-02T10:47:36.244Z,98498.66
2018-07-02T10:50:04.326Z,98498.73
2018-07-02T10:52:32.506Z,98496.61
2018-07-02T10:55:00.611Z,98491.30
2018-07-02T10:57:28.733Z,98498.26
2018-07-02T10:59:57.119Z,98492.62
2018-07-02T11:02:25.261Z,98492.48
2018-07-02T11:04:53.468Z,98493.09
2018-07-02T11:07:21.560Z,98490.63
2018-07-02T11:09:50.058Z,98489.66
2018-07-02T11:12:19.248Z,98494.01
2018-07-02T11:14:47.467Z,98489.52
2018-07-02T11:17:15.582Z,98489.05
2018-07-02T11:19:43.774Z,98487.17
2018-07-02T11:22:11.867Z,98488.77
2018-07-02T11:24:40.108Z,98490.72
2018-07-02T11:27:08.317Z,98489.08
2018-07-02T11:29:36.421Z,98486.88
2018-07-02T11:32:04.510Z,98491.06
2018-07-02T11:34:32.603Z,98490.41
2018-07-02T11:37:01.199Z,98490.78
2018-07-02T11:39:29.299Z,98487.77
2018-07-02T11:41:57.380Z,98480.22
2018-07-02T11:44:25.530Z,98492.40
2018-07-02T11:46:53.704Z,98477.52
2018-07-02T11:49:21.794Z,98473.47
2018-07-02T11:51:50.021Z,98470.16
2018-07-02T11:54:18.169Z,98480.88
2018-07-02T11:56:46.275Z,98478.31
2018-07-02T11:59:14.356Z,98473.16
2018-07-02T12:01:42.564Z,98477.59
2018-07-02T12:04:11.021Z,98479.55
2018-07-02T12:06:39.092Z,98482.34
2018-07-02T12:09:08.565Z,98489.01
2018-07-02T12:11:36.632Z,98485.09
2018-07-02T12:14:04.732Z,98484.19
2018-07-02T12:16:32.826Z,98488.36
2018-07-02T12:19:00.935Z,98488.95
2018-07-02T12:21:29.052Z,98482.08
2018-07-02T12:23:57.144Z,98484.62
2018-07-02T12:26:25.457Z,98476.37
2018-07-02T12:28:53.792Z,98481.72
2018-07-02T12:31:21.892Z,98475.18
2018-07-02T12:33:49.992Z,98473.41
2018-07-02T12:36:18.115Z,98470.93
2018-07-02T12:38:46.203Z,98471.19
2018-07-02T12:41:14.306Z,98461.86
2018-07-02T12:43:42.389Z,98463.47
2018-07-02T12:46:10.524Z,98463.53
2018-07-02T12:48:38.580Z,98470.91
2018-07-02T12:51:06.681Z,98467.84
2018-07-02T12:53:34.768Z,98468.22
2018-07-02T12:56:03.421Z,98475.29
2018-07-02T12:58:31.596Z,98464.80
2018-07-02T13:00:59.689Z,98463.61
2018-07-02T13:03:28.171Z,98466.40
2018-07-02T13:05:56.313Z,98454.15
2018-07-02T13:08:24.405Z,98439.39
2018-07-02T13:10:52.517Z,98443.39
2018-07-02T13:13:20.644Z,98439.38
2018-07-02T13:15:48.744Z,98437.66
2018-07-02T13:18:16.823Z,98446.81
2018-07-02T13:20:45.149Z,98441.02
2018-07-02T13:23:13.180Z,98439.88
2018-07-02T13:25:41.272Z,98433.24
2018-07-02T13:28:09.360Z,98437.55
2018-07-02T13:30:37.458Z,98433.89
2018-07-02T13:33:05.588Z,98433.55
2018-07-02T13:35:34.602Z,98427.92
2018-07-02T13:38:02.700Z,98422.98
2018-07-02T13:40:30.784Z,98417.73
2018-07-02T13:43:05.778Z,98417.02
2018-07-02T13:45:34.878Z,98416.74
2018-07-02T13:48:03.036Z,98413.72
2018-07-02T13:50:31.115Z,98417.38
2018-07-02T13:52:59.301Z,98413.13
2018-07-02T13:55:27.425Z,98409.80
2018-07-02T13:57:56.572Z,98414.41
2018-07-02T14:00:24.852Z,98406.73
2018-07-02T14:02:53.389Z,98404.71
2018-07-02T14:05:21.503Z,98408.44
2018-07-02T14:07:49.682Z,98405.19
2018-07-02T14:10:18.067Z,98396.39
2018-07-02T14:12:46.149Z,98398.38
2018-07-02T14:15:14.241Z,98397.44
2018-07-02T14:17:42.337Z,98399.84
2018-07-02T14:20:10.530Z,98402.27
2018-07-02T14:22:38.652Z,98406.30
2018-07-02T14:25:06.781Z,98406.35
2018-07-02T14:27:34.876Z,98404.64
2018-07-02T14:30:03.016Z,98393.06
2018-07-02T14:32:31.105Z,98404.30
2018-07-02T14:34:59.197Z,98395.66
2018-07-02T14:37:27.371Z,98396.30
2018-07-02T14:39:55.476Z,98398.66
2018-07-02T14:42:23.571Z,98399.65
2018-07-02T14:44:51.783Z,98392.47
2018-07-02T14:47:20.183Z,98397.91
2018-07-02T14:49:48.537Z,98394.00
2018-07-02T14:52:16.624Z,98393.48
2018-07-02T14:54:44.849Z,98392.64
2018-07-02T14:57:13.077Z,98393.69
2018-07-02T14:59:41.173Z,98393.09
2018-07-02T15:02:09.290Z,98397.11
2018-07-02T15:04:37.497Z,98386.09
2018-07-02T15:07:05.829Z,98386.70
2018-07-02T15:09:33.932Z,98387.96
2018-07-02T15:12:02.005Z,98381.16
2018-07-02T15:14:30.472Z,98371.20
2018-07-02T15:16:58.586Z,98382.11
2018-07-02T15:19:26.712Z,98389.32
2018-07-02T15:21:55.161Z,98385.59
2018-07-02T15:24:23.610Z,98382.42
2018-07-02T15:26:51.989Z,98379.14
2018-07-02T15:29:20.109Z,98376.91
2018-07-02T15:31:48.229Z,98375.99
2018-07-02T15:34:16.336Z,98386.27
2018-07-02T15:36:44.420Z,98384.80
2018-07-02T15:39:12.540Z,98376.00
2018-07-02T15:41:40.746Z,98369.28
2018-07-02T15:44:08.806Z,98374.95
2018-07-02T15:46:36.949Z,98371.61
2018-07-02T15:49:05.088Z,98374.89
2018-07-02T15:51:33.172Z,98376.59
2018-07-02T15:54:01.945Z,98371.03
2018-07-02T15:56:29.803Z,98377.50
2018-07-02T15:58:57.901Z,98383.48
2018-07-02T16:01:25.981Z,98385.05
2018-07-02T16:03:54.084Z,98384.18
2018-07-02T16:06:22.195Z,98375.26
2018-07-02T16:08:50.298Z,98380.47
2018-07-02T16:11:18.580Z,98370.03
2018-07-02T16:13:46.768Z,98364.59
2018-07-02T16:16:14.985Z,98374.22
2018-07-02T16:18:43.099Z,98382.33
2018-07-02T16:21:11.304Z,98374.91
2018-07-02T16:23:40.201Z,98370.37
2018-07-02T16:26:08.313Z,98371.81
2018-07-02T16:28:36.772Z,98365.42
2018-07-02T16:31:05.121Z,98363.06
2018-07-02T16:33:33.259Z,98361.92
2018-07-02T16:36:01.352Z,98361.84
2018-07-02T16:38:29.432Z,98358.68
2018-07-02T16:40:57.540Z,98353.70
2018-07-02T16:43:25.672Z,98352.02
2018-07-02T16:45:53.771Z,98349.27
2018-07-02T16:48:21.949Z,98349.70
2018-07-02T16:50:50.084Z,98350.24
2018-07-02T16:53:18.230Z,98351.52
2018-07-02T16:55:46.373Z,98350.39
2018-07-02T16:58:14.464Z,98353.55
2018-07-02T17:00:42.549Z,98364.22
2018-07-02T17:03:11.670Z,98366.08
2018-07-02T17:05:39.769Z,98366.18
2018-07-02T17:08:07.844Z,98363.69
2018-07-02T17:10:35.945Z,98367.20
2018-07-02T17:13:04.076Z,98365.20
2018-07-02T17:15:32.193Z,98368.45
2018-07-02T17:18:00.265Z,98370.13
2018-07-02T17:20:28.556Z,98369.44
2018-07-02T17:22:56.636Z,98374.94
2018-07-02T17:25:24.730Z,98374.62
2018-07-02T17:27:52.842Z,98378.45
2018-07-02T17:30:20.956Z,98376.40
2018-07-02T17:32:49.106Z,98369.11
2018-07-02T17:35:17.209Z,98373.91
2018-07-02T17:37:45.305Z,98378.77
2018-07-02T17:40:13.400Z,98375.18
2018-07-02T17:42:41.836Z,98384.55
2018-07-02T17:45:09.960Z,98381.98
2018-07-02T17:47:38.055Z,98385.05
2018-07-02T17:50:06.279Z,98392.08
2018-07-02T17:52:34.415Z,98386.77
2018-07-02T17:55:02.510Z,98382.87
2018-07-02T17:57:30.611Z,98390.77
2018-07-02T17:59:58.686Z,98393.05
2018-07-02T18:02:28.618Z,98396.82
2018-07-02T18:04:56.736Z,98381.91
2018-07-02T18:07:24.821Z,98386.55
2018-07-02T18:09:52.958Z,98388.50
2018-07-02T18:12:21.008Z,98384.67
2018-07-02T18:14:49.243Z,98383.73
2018-07-02T18:17:17.454Z,98385.95
2018-07-02T18:19:45.545Z,98383.82
2018-07-02T18:22:14.989Z,98389.84
2018-07-02T18:24:43.347Z,98383.73
2018-07-02T18:27:11.446Z,98386.23
2018-07-02T18:29:39.538Z,98389.80
2018-07-02T18:32:08.301Z,98394.75
2018-07-02T18:34:36.358Z,98396.67
2018-07-02T18:37:04.459Z,98398.48
2018-07-02T18:39:32.548Z,98398.20
2018-07-02T18:42:00.776Z,98400.36
2018-07-02T18:44:28.865Z,98403.30
2018-07-02T18:46:56.982Z,98397.98
2018-07-02T18:49:25.089Z,98393.34
2018-07-02T18:51:53.878Z,98404.08
2018-07-02T18:54:21.997Z,98403.34
2018-07-02T18:56:50.178Z,98407.37
2018-07-02T18:59:18.278Z,98409.83
2018-07-02T19:01:46.357Z,98410.42
2018-07-02T19:04:14.517Z,98414.95
2018-07-02T19:06:42.661Z,98420.79
2018-07-02T19:09:11.690Z,98412.39
2018-07-02T19:11:40.057Z,98418.80
2018-07-02T19:14:08.165Z,98421.08
2018-07-02T19:16:36.392Z,98418.17
2018-07-02T19:19:04.484Z,98431.06
2018-07-02T19:21:32.645Z,98419.34
2018-07-02T19:24:00.810Z,98421.55
2018-07-02T19:26:28.951Z,98426.42
2018-07-02T19:28:58.045Z,98425.02
2018-07-02T19:31:26.143Z,98430.02
2018-07-02T19:33:54.236Z,98436.31
2018-07-02T19:36:22.432Z,98436.86
2018-07-02T19:38:50.538Z,98435.34
2018-07-02T19:43:45.764Z,98448.86
2018-07-02T19:46:13.853Z,98450.85
2018-07-02T19:48:41.956Z,98458.67
2018-07-02T19:51:10.048Z,98458.27
2018-07-02T19:53:38.164Z,98459.34
2018-07-02T19:56:06.403Z,98458.20
2018-07-02T19:58:34.560Z,98463.25
2018-07-02T20:01:02.669Z,98474.39
2018-07-02T20:03:30.760Z,98466.14
2018-07-02T20:05:58.869Z,98468.63
2018-07-02T20:08:26.993Z,98481.18
2018-07-02T20:10:55.104Z,98486.52
2018-07-02T20:13:23.827Z,98493.43
2018-07-02T20:15:51.922Z,98497.09
2018-07-02T20:18:20.027Z,98492.87
2018-07-02T20:20:48.132Z,98506.97
2018-07-02T20:23:16.944Z,98500.27
2018-07-02T20:25:45.459Z,98503.04
2018-07-02T20:28:13.592Z,98501.78
2018-07-02T20:30:41.687Z,98499.28
2018-07-02T20:33:09.812Z,98509.70
2018-07-02T20:35:37.947Z,98518.44
2018-07-02T20:38:06.083Z,98519.44
2018-07-02T20:40:34.173Z,98523.20
2018-07-02T20:43:02.343Z,98528.47
2018-07-02T20:45:30.542Z,98534.53
2018-07-02T20:47:58.612Z,98535.57
2018-07-02T20:50:26.773Z,98535.44
2018-07-02T20:52:54.984Z,98537.27
2018-07-02T20:55:23.420Z,98536.72
2018-07-02T20:57:51.512Z,98544.75
2018-07-02T21:00:19.604Z,98548.31
2018-07-02T21:02:47.700Z,98549.47
2018-07-02T21:05:16.005Z,98545.09
2018-07-02T21:07:44.088Z,98554.60
2018-07-02T21:10:12.240Z,98556.05
2018-07-02T21:12:40.280Z,98559.05
2018-07-02T21:15:08.389Z,98566.66
2018-07-02T21:17:36.516Z,98555.78
2018-07-02T21:20:05.041Z,98560.69
2018-07-02T21:22:33.120Z,98554.57
2018-07-02T21:25:01.627Z,98546.88
2018-07-02T21:27:29.706Z,98551.23
2018-07-02T21:29:58.635Z,98552.27
2018-07-02T21:32:27.211Z,98554.22
2018-07-02T21:34:55.341Z,98556.64
2018-07-02T21:37:23.501Z,98558.95
2018-07-02T21:39:51.592Z,98562.82
2018-07-02T21:42:19.797Z,98563.91
2018-07-02T21:44:47.928Z,98560.25
2018-07-02T21:47:15.999Z,98558.73
2018-07-02T21:49:44.084Z,98558.28
2018-07-02T21:52:12.177Z,98558.81
2018-07-02T21:54:40.272Z,98555.42
2018-07-02T21:57:08.356Z,98559.12
2018-07-02T22:02:38.812Z,98552.74
2018-07-02T22:05:06.980Z,98555.11
2018-07-02T22:07:35.117Z,98551.45
2018-07-02T22:10:03.209Z,98552.49
2018-07-02T22:12:31.331Z,98552.69
2018-07-02T22:14:59.411Z,98551.84
2018-07-02T22:17:27.510Z,98551.20
2018-07-02T22:19:55.892Z,98556.59
2018-07-02T22:22:23.995Z,98558.57
2018-07-02T22:24:52.121Z,98558.31
2018-07-02T22:27:20.242Z,98558.36
2018-07-02T22:29:48.352Z,98558.36
2018-07-02T22:32:16.606Z,98555.25
2018-07-02T22:34:44.723Z,98558.56
2018-07-02T22:37:12.908Z,98551.05
2018-07-02T22:39:41.049Z,98556.03
2018-07-02T22:42:09.215Z,98556.72
2018-07-02T22:44:37.330Z,98555.35
2018-07-02T22:47:05.503Z,98550.26
2018-07-02T22:49:34.435Z,98547.74
2018-07-02T22:52:02.515Z,98549.97
2018-07-02T22:54:30.607Z,98554.02
2018-07-02T22:56:58.700Z,98554.72
2018-07-02T22:59:27.180Z,98549.88
2018-07-02T23:01:55.323Z,98550.05
2018-07-02T23:04:23.410Z,98551.23
2018-07-02T23:06:51.510Z,98553.80
2018-07-02T23:09:19.741Z,98545.09
2018-07-02T23:11:47.822Z,98549.94
2018-07-02T23:14:15.887Z,98556.69
2018-07-02T23:16:44.304Z,98562.39
2018-07-02T23:19:12.474Z,98558.94
2018-07-02T23:21:40.752Z,98558.88
2018-07-02T23:24:09.122Z,98562.13
2018-07-02T23:26:37.538Z,98561.67
2018-07-02T23:29:05.669Z,98558.02
2018-07-02T23:31:33.750Z,98568.23
2018-07-02T23:34:01.832Z,98560.84
2018-07-02T23:36:29.914Z,98560.66
2018-07-02T23:38:59.015Z,98565.61
2018-07-02T23:41:27.195Z,98558.74
2018-07-02T23:43:58.288Z,98566.42
2018-07-02T23:46:26.372Z,98559.53
2018-07-02T23:48:54.460Z,98554.91
2018-07-02T23:51:22.552Z,98550.91
2018-07-02T23:53:50.760Z,98547.52
2018-07-02T23:56:18.947Z,98546.09
2018-07-02T23:58:47.045Z,98539.04
